Time;durP1;ratioP1;P1;durP2;ratioP2;P2;SDS_P1;SDS_P2;PMS_P1;PMS_P2;Temp;Humidity;BMP_temperature;BMP_pressure;BME280_temperature;BME280_humidity;BME280_pressure;Samples;Min_cycle;Max_cycle;Signal;HPM_P1;HPM_P2
2022/02/25 00:01:06;;;;;;;21.37;20.50;;;18.50;56.10;;;;;;5055438;28;20446;-40
2022/02/25 00:03:33;;;;;;;21.13;20.23;;;18.60;56.30;;;;;;5056798;28;20930;-40
2022/02/25 00:06:00;;;;;;;21.93;20.97;;;18.50;56.50;;;;;;5075224;28;20766;-40
2022/02/25 00:08:27;;;;;;;21.87;20.97;;;18.50;56.70;;;;;;5074814;28;20896;-40
2022/02/25 00:10:54;;;;;;;21.13;20.23;;;18.50;56.80;;;;;;5074983;28;20487;-40
2022/02/25 00:13:21;;;;;;;21.03;20.13;;;18.50;56.80;;;;;;5074765;28;20446;-40
2022/02/25 00:15:49;;;;;;;21.77;20.80;;;18.50;56.90;;;;;;5034948;28;20449;-40
2022/02/25 00:18:15;;;;;;;21.60;20.70;;;18.50;57.10;;;;;;5034722;28;20473;-40
2022/02/25 00:20:42;;;;;;;21.13;20.23;;;18.40;57.00;;;;;;5034753;28;20449;-40
2022/02/25 00:23:09;;;;;;;21.47;20.57;;;18.40;57.10;;;;;;5034988;28;20503;-40
2022/02/25 00:25:36;;;;;;;21.30;20.40;;;18.30;57.20;;;;;;5071777;28;20443;-40
2022/02/25 00:28:03;;;;;;;20.93;20.13;;;18.20;57.60;;;;;;5074545;28;20463;-40
2022/02/25 00:30:29;;;;;;;20.70;19.80;;;18.00;57.80;;;;;;5074450;28;20550;-40
2022/02/25 00:32:57;;;;;;;20.90;20.10;;;18.00;58.80;;;;;;5074559;28;20538;-40
2022/02/25 00:35:24;;;;;;;20.97;20.07;;;17.90;58.90;;;;;;5057668;28;20463;-40
2022/02/25 00:37:51;;;;;;;21.20;20.30;;;17.90;59.20;;;;;;5057807;28;20467;-40
2022/02/25 00:40:18;;;;;;;21.00;20.10;;;17.90;59.60;;;;;;5074347;28;20830;-40
2022/02/25 00:42:44;;;;;;;21.30;20.30;;;17.90;59.80;;;;;;5074666;28;20443;-40
2022/02/25 00:45:11;;;;;;;20.90;20.03;;;17.80;60.00;;;;;;5059508;28;20445;-40
2022/02/25 00:47:38;;;;;;;20.90;20.10;;;17.80;60.30;;;;;;5054202;28;20447;-40
2022/02/25 00:50:09;;;;;;;21.27;20.37;;;17.70;59.80;;;;;;5054172;28;20453;-40
2022/02/25 00:52:36;;;;;;;21.70;20.60;;;17.70;60.80;;;;;;5054218;28;20480;-40
2022/02/25 00:55:04;;;;;;;20.90;20.00;;;17.70;60.90;;;;;;5055095;28;20519;-40
2022/02/25 00:57:31;;;;;;;21.60;20.70;;;17.70;60.50;;;;;;5053990;28;20454;-40
2022/02/25 00:59:58;;;;;;;21.20;20.30;;;17.60;60.90;;;;;;5069797;22;20489;-43
2022/02/25 01:02:24;;;;;;;21.20;20.30;;;17.60;61.10;;;;;;5052591;28;20464;-42
2022/02/25 01:04:51;;;;;;;21.57;20.57;;;17.60;61.50;;;;;;5044345;28;20442;-44
2022/02/25 01:07:19;;;;;;;22.07;21.07;;;17.60;62.20;;;;;;5035817;28;20533;-45
2022/02/25 01:09:46;;;;;;;20.80;20.00;;;17.60;62.10;;;;;;5035421;28;20474;-44
2022/02/25 01:12:13;;;;;;;21.13;20.13;;;17.60;62.20;;;;;;5035391;28;20538;-42
2022/02/25 01:14:40;;;;;;;21.23;20.33;;;17.60;62.70;;;;;;5034970;28;20472;-42
2022/02/25 01:17:06;;;;;;;20.80;19.90;;;17.50;63.00;;;;;;5035569;28;20445;-45
2022/02/25 01:19:33;;;;;;;21.50;20.60;;;17.60;63.30;;;;;;5034893;28;20473;-43
2022/02/25 01:22:00;;;;;;;21.13;20.23;;;17.60;63.10;;;;;;5035359;28;20477;-45
2022/02/25 01:24:28;;;;;;;21.93;20.93;;;17.50;63.30;;;;;;5035551;28;20446;-42
2022/02/25 01:26:55;;;;;;;21.00;20.10;;;17.50;63.50;;;;;;5035649;28;20953;-43
2022/02/25 01:29:21;;;;;;;21.23;20.33;;;17.40;63.90;;;;;;5035240;28;20473;-42
2022/02/25 01:31:48;;;;;;;21.30;20.40;;;17.40;65.00;;;;;;5035487;28;20997;-43
2022/02/25 01:34:17;;;;;;;21.20;20.20;;;17.40;65.00;;;;;;5035645;28;20441;-42
2022/02/25 01:36:44;;;;;;;21.37;20.37;;;17.30;65.40;;;;;;5035481;28;20453;-44
2022/02/25 01:39:10;;;;;;;21.30;20.13;;;17.30;65.70;;;;;;5034831;28;20546;-42
2022/02/25 01:41:38;;;;;;;21.93;20.93;;;17.30;66.00;;;;;;5034854;28;20452;-46
2022/02/25 01:44:16;;;;;;;21.70;20.70;;;17.20;65.90;;;;;;5034555;28;21172;-44
2022/02/25 01:46:47;;;;;;;21.67;20.67;;;17.10;66.80;;;;;;5034866;28;20453;-44
2022/02/25 01:49:13;;;;;;;21.40;20.50;;;17.10;67.30;;;;;;5034757;28;20503;-46
2022/02/25 01:51:40;;;;;;;20.73;19.93;;;17.10;67.50;;;;;;5034632;28;20568;-42
2022/02/25 01:54:07;;;;;;;21.63;20.73;;;17.10;67.30;;;;;;5034578;28;20448;-43
2022/02/25 01:56:34;;;;;;;21.00;20.10;;;17.10;67.10;;;;;;5034481;28;20450;-45
2022/02/25 01:59:03;;;;;;;21.40;20.50;;;17.00;67.30;;;;;;5034698;28;20473;-42
2022/02/25 02:01:29;;;;;;;20.60;19.80;;;17.00;68.40;;;;;;5035760;28;20456;-43
2022/02/25 02:03:56;;;;;;;20.80;20.00;;;17.00;68.90;;;;;;5035106;28;20449;-43
2022/02/25 02:06:23;;;;;;;21.90;20.90;;;17.00;69.20;;;;;;5035297;28;20456;-45
2022/02/25 02:08:50;;;;;;;21.03;20.13;;;17.00;69.60;;;;;;5034326;28;20468;-44
2022/02/25 02:11:31;;;;;;;21.77;20.77;;;17.00;69.70;;;;;;5035166;28;20481;-45
2022/02/25 02:14:00;;;;;;;21.20;20.30;;;17.00;69.40;;;;;;5034753;28;20446;-42
2022/02/25 02:16:28;;;;;;;21.90;20.90;;;17.00;69.20;;;;;;5034978;28;20450;-45
2022/02/25 02:18:56;;;;;;;21.03;20.00;;;16.90;69.70;;;;;;5033903;28;20476;-43
2022/02/25 02:21:24;;;;;;;20.90;20.00;;;16.90;70.10;;;;;;5034800;28;20449;-44
2022/02/25 02:23:53;;;;;;;21.30;20.40;;;16.90;70.20;;;;;;5034696;28;20446;-43
2022/02/25 02:26:20;;;;;;;21.40;20.50;;;16.90;70.60;;;;;;5035137;28;20448;-43
2022/02/25 02:28:47;;;;;;;21.63;20.70;;;16.80;70.80;;;;;;5034296;28;20476;-42
2022/02/25 02:31:14;;;;;;;21.20;20.30;;;16.80;71.40;;;;;;5033816;28;20485;-46
2022/02/25 02:33:41;;;;;;;21.20;20.30;;;16.80;71.60;;;;;;5033697;28;20970;-44
2022/02/25 02:36:09;;;;;;;21.10;20.20;;;16.90;71.80;;;;;;5033818;28;20935;-44
2022/02/25 02:38:36;;;;;;;21.43;20.53;;;16.80;72.30;;;;;;5033372;28;20469;-43
2022/02/25 02:41:05;;;;;;;21.37;20.40;;;16.80;71.90;;;;;;5033783;28;20445;-45
2022/02/25 02:43:32;;;;;;;21.27;20.37;;;16.80;72.40;;;;;;5033573;28;20452;-47
2022/02/25 02:45:59;;;;;;;21.07;20.17;;;16.80;72.30;;;;;;5033988;28;20842;-45
2022/02/25 02:48:26;;;;;;;21.93;20.83;;;16.70;72.40;;;;;;5033980;28;20465;-45
2022/02/25 02:50:52;;;;;;;20.47;19.67;;;16.70;73.20;;;;;;5034347;28;20454;-42
2022/02/25 02:53:19;;;;;;;23.20;21.23;;;16.80;73.80;;;;;;5033450;28;20481;-42
2022/02/25 02:55:47;;;;;;;21.40;20.40;;;16.70;73.40;;;;;;5033929;28;20452;-45
2022/02/25 02:58:15;;;;;;;21.30;20.40;;;16.70;74.10;;;;;;5034041;28;20488;-44
2022/02/25 03:00:45;;;;;;;22.13;21.13;;;16.70;74.50;;;;;;5034213;28;20452;-46
2022/02/25 03:03:11;;;;;;;21.13;20.20;;;16.60;74.90;;;;;;5034076;28;20441;-46
2022/02/25 03:05:39;;;;;;;21.43;20.43;;;16.60;74.70;;;;;;5034270;28;20807;-44
2022/02/25 03:08:07;;;;;;;21.30;20.30;;;16.60;75.40;;;;;;5032964;28;20449;-45
2022/02/25 03:10:34;;;;;;;21.27;20.30;;;16.60;75.90;;;;;;5033258;28;20445;-44
2022/02/25 03:13:02;;;;;;;21.17;20.17;;;16.60;75.80;;;;;;5033714;28;20484;-46
2022/02/25 03:15:30;;;;;;;21.23;20.33;;;16.70;76.20;;;;;;5033484;28;20446;-45
2022/02/25 03:17:56;;;;;;;21.10;20.20;;;16.60;75.90;;;;;;5033115;28;20469;-46
2022/02/25 03:20:23;;;;;;;21.13;20.23;;;16.70;76.00;;;;;;5033177;28;20792;-44
2022/02/25 03:22:51;;;;;;;21.30;20.40;;;16.60;75.80;;;;;;5033280;28;20450;-42
2022/02/25 03:25:18;;;;;;;20.50;19.70;;;16.60;75.80;;;;;;5035729;28;20449;-45
2022/02/25 03:27:45;;;;;;;21.03;20.13;;;16.60;77.20;;;;;;5033989;28;20453;-42
2022/02/25 03:30:13;;;;;;;21.20;20.30;;;16.60;75.70;;;;;;5033761;28;20460;-45
2022/02/25 03:32:42;;;;;;;20.90;20.00;;;16.60;77.60;;;;;;5037384;28;20485;-44
2022/02/25 03:35:09;;;;;;;22.13;21.13;;;16.50;76.50;;;;;;5037969;28;20858;-42
2022/02/25 03:37:36;;;;;;;21.50;20.50;;;16.50;76.60;;;;;;5037234;28;20452;-43
2022/02/25 03:40:04;;;;;;;21.40;20.40;;;16.60;77.30;;;;;;5037040;28;20471;-42
2022/02/25 03:42:31;;;;;;;21.07;20.17;;;16.60;76.80;;;;;;5037065;28;20449;-42
2022/02/25 03:44:58;;;;;;;21.00;20.10;;;16.50;76.70;;;;;;5037357;28;20445;-48
2022/02/25 03:47:24;;;;;;;21.10;20.20;;;16.50;77.30;;;;;;5037020;28;20453;-44
2022/02/25 03:49:53;;;;;;;21.77;20.77;;;16.50;77.90;;;;;;5036965;28;20473;-45
2022/02/25 03:52:19;;;;;;;21.00;20.10;;;16.50;77.90;;;;;;5036833;28;20481;-42
2022/02/25 03:54:46;;;;;;;22.20;21.10;;;16.60;77.70;;;;;;5037629;28;20441;-44
2022/02/25 03:57:13;;;;;;;22.07;21.07;;;16.60;77.50;;;;;;5037244;28;20456;-43
2022/02/25 03:59:39;;;;;;;22.03;21.03;;;16.60;78.40;;;;;;5036648;28;20473;-46
2022/02/25 04:02:06;;;;;;;22.77;21.67;;;16.70;78.00;;;;;;5038664;28;20801;-44
2022/02/25 04:04:33;;;;;;;22.20;21.20;;;16.80;77.90;;;;;;5038207;28;20453;-46
2022/02/25 04:07:01;;;;;;;21.40;20.50;;;16.80;78.00;;;;;;5036740;28;20456;-43
2022/02/25 04:09:28;;;;;;;21.90;21.00;;;16.80;78.40;;;;;;5036849;28;20473;-45
2022/02/25 04:11:55;;;;;;;21.33;20.43;;;16.80;78.40;;;;;;5036923;28;20530;-46
2022/02/25 04:14:23;;;;;;;21.40;20.50;;;16.80;78.00;;;;;;5036658;28;20503;-43
2022/02/25 04:16:52;;;;;;;21.10;20.30;;;16.80;77.70;;;;;;5036748;28;20528;-42
2022/02/25 04:19:19;;;;;;;21.20;20.20;;;16.80;77.60;;;;;;5036377;28;20978;-44
2022/02/25 04:21:46;;;;;;;20.60;19.70;;;16.80;78.20;;;;;;5036512;28;20437;-46
2022/02/25 04:24:15;;;;;;;21.50;20.40;;;16.80;78.60;;;;;;5036128;28;20445;-49
2022/02/25 04:26:42;;;;;;;21.17;20.07;;;16.80;78.30;;;;;;5036205;28;20445;-44
2022/02/25 04:29:10;;;;;;;20.83;19.90;;;16.60;78.70;;;;;;5036255;28;20523;-45
2022/02/25 04:31:36;;;;;;;21.87;20.87;;;16.50;80.50;;;;;;5036204;28;20449;-48
2022/02/25 04:34:03;;;;;;;21.20;20.30;;;16.50;80.90;;;;;;5036259;28;20453;-44
2022/02/25 04:36:33;;;;;;;20.50;19.70;;;16.50;81.60;;;;;;5036180;28;20456;-43
2022/02/25 04:38:59;;;;;;;20.90;19.90;;;16.50;82.30;;;;;;5036276;28;20982;-45
2022/02/25 04:41:28;;;;;;;21.43;20.43;;;16.50;82.20;;;;;;5036002;28;20444;-43
2022/02/25 04:43:54;;;;;;;21.83;20.77;;;16.50;82.50;;;;;;5036367;28;20803;-44
2022/02/25 04:46:25;;;;;;;20.93;20.03;;;16.60;82.00;;;;;;5035790;28;20549;-44
2022/02/25 04:48:52;;;;;;;21.13;20.13;;;16.50;81.80;;;;;;5035707;28;20950;-44
2022/02/25 04:51:21;;;;;;;21.83;20.93;;;16.60;80.70;;;;;;5035907;28;20442;-46
2022/02/25 04:53:48;;;;;;;21.63;20.63;;;16.40;81.80;;;;;;5036352;28;20814;-45
2022/02/25 04:56:15;;;;;;;20.80;19.90;;;16.30;83.50;;;;;;5036404;28;20452;-42
2022/02/25 04:58:43;;;;;;;22.27;21.30;;;16.20;84.70;;;;;;5035741;28;20469;-46
2022/02/25 05:01:10;;;;;;;21.20;20.30;;;16.30;84.40;;;;;;5035965;28;20821;-43
2022/02/25 05:03:37;;;;;;;21.27;20.17;;;16.40;84.40;;;;;;5036198;28;20472;-44
2022/02/25 05:06:04;;;;;;;21.57;20.57;;;16.30;82.60;;;;;;5036025;28;20868;-42
2022/02/25 05:08:31;;;;;;;21.53;20.63;;;16.30;84.80;;;;;;5035743;28;20477;-41
2022/02/25 05:10:58;;;;;;;20.77;19.87;;;16.20;84.60;;;;;;5035933;28;20452;-42
2022/02/25 05:13:25;;;;;;;21.60;20.50;;;16.30;84.50;;;;;;5036071;28;20956;-42
2022/02/25 05:21:21;;;;;;;21.13;20.13;;;16.20;86.20;;;;;;5035475;28;20424;-43
2022/02/25 05:23:48;;;;;;;21.03;20.03;;;16.10;86.70;;;;;;5035272;28;20453;-47
2022/02/25 05:26:15;;;;;;;20.93;20.03;;;16.10;88.10;;;;;;5035521;28;20445;-45
2022/02/25 05:28:42;;;;;;;21.07;20.17;;;16.10;88.50;;;;;;5035229;28;20469;-43
2022/02/25 05:31:10;;;;;;;21.33;20.30;;;16.00;88.70;;;;;;5035124;28;20956;-44
2022/02/25 05:33:36;;;;;;;21.57;20.57;;;16.00;89.20;;;;;;5035130;28;20488;-42
2022/02/25 05:36:03;;;;;;;21.43;20.23;;;16.00;89.60;;;;;;5035483;28;20449;-42
2022/02/25 05:38:30;;;;;;;22.80;21.43;;;16.00;94.00;;;;;;5035560;28;20470;-41
2022/02/25 05:40:57;;;;;;;24.47;22.00;;;16.30;99.90;;;;;;5035469;28;20453;-42
2022/02/25 05:43:24;;;;;;;22.63;20.60;;;16.40;99.90;;;;;;5034864;28;20575;-43
2022/02/25 05:45:50;;;;;;;23.87;21.57;;;16.50;99.90;;;;;;5034785;28;20446;-42
2022/02/25 05:48:18;;;;;;;24.10;21.87;;;16.50;99.90;;;;;;5034802;28;20473;-44
2022/02/25 05:50:45;;;;;;;21.63;20.10;;;16.50;99.90;;;;;;5035653;28;20456;-44
2022/02/25 05:53:12;;;;;;;23.40;21.70;;;17.20;99.90;;;;;;5033170;28;21008;-42
2022/02/25 05:55:39;;;;;;;24.43;22.50;;;17.70;99.90;;;;;;5033218;28;20453;-45
2022/02/25 05:58:06;;;;;;;21.83;20.33;;;18.10;99.90;;;;;;5032750;28;20449;-45
2022/02/25 06:00:33;;;;;;;24.10;21.97;;;18.40;99.90;;;;;;5033503;28;20484;-43
2022/02/25 06:02:59;;;;;;;23.93;21.90;;;18.70;99.90;;;;;;5032896;28;20441;-47
2022/02/25 06:05:28;;;;;;;23.13;21.60;;;18.80;99.90;;;;;;5033092;28;20452;-43
2022/02/25 06:07:57;;;;;;;24.40;22.57;;;19.10;99.90;;;;;;5033044;28;20449;-44
2022/02/25 06:10:24;;;;;;;26.90;25.50;;;19.20;99.90;;;;;;5033459;28;20955;-46
2022/02/25 06:12:51;;;;;;;26.93;25.43;;;19.20;99.50;;;;;;5033744;28;20488;-43
2022/02/25 06:15:18;;;;;;;34.30;32.17;;;19.20;98.50;;;;;;5033225;28;20441;-44
2022/02/25 06:17:47;;;;;;;34.70;32.90;;;19.30;97.40;;;;;;5032943;28;20453;-42
2022/02/25 06:20:14;;;;;;;26.40;24.80;;;19.30;96.80;;;;;;5032787;28;20453;-45
2022/02/25 06:22:43;;;;;;;26.67;25.17;;;19.40;95.60;;;;;;5033098;28;20441;-45
2022/02/25 06:25:10;;;;;;;27.63;25.50;;;19.40;94.40;;;;;;5032979;28;20449;-47
2022/02/25 06:27:37;;;;;;;27.30;26.00;;;19.50;93.60;;;;;;5032880;28;20450;-41
2022/02/25 06:30:06;;;;;;;32.67;30.40;;;19.40;92.70;;;;;;5032611;28;20520;-44
2022/02/25 06:32:33;;;;;;;35.17;33.40;;;19.50;92.20;;;;;;5032916;28;20485;-48
2022/02/25 06:34:59;;;;;;;34.10;32.50;;;19.50;91.30;;;;;;5032683;28;20472;-43
2022/02/25 06:37:28;;;;;;;31.63;30.13;;;19.50;90.60;;;;;;5033066;28;20449;-43
2022/02/25 06:39:57;;;;;;;30.90;29.40;;;19.50;90.00;;;;;;5032406;28;20513;-43
2022/02/25 06:42:24;;;;;;;34.67;33.07;;;19.50;87.50;;;;;;5032515;28;20441;-44
2022/02/25 06:44:52;;;;;;;35.60;33.93;;;19.50;85.70;;;;;;5032504;28;20528;-44
2022/02/25 06:47:19;;;;;;;35.13;33.50;;;19.50;84.90;;;;;;5032445;28;20809;-44
2022/02/25 06:49:46;;;;;;;36.27;34.67;;;19.50;83.90;;;;;;5032050;28;20520;-46
2022/02/25 06:52:13;;;;;;;30.80;29.40;;;19.50;83.00;;;;;;5032333;28;20445;-48
2022/02/25 06:54:39;;;;;;;30.90;29.40;;;19.50;81.50;;;;;;5032217;28;20457;-43
2022/02/25 06:57:08;;;;;;;32.50;30.57;;;19.50;80.40;;;;;;5032464;28;20449;-48
2022/02/25 06:59:35;;;;;;;34.10;32.27;;;19.50;79.40;;;;;;5065881;22;20488;-43
2022/02/25 07:02:01;;;;;;;36.87;35.07;;;19.50;78.70;;;;;;5051678;28;20440;-40
2022/02/25 07:04:28;;;;;;;35.20;33.50;;;19.40;77.50;;;;;;5051672;28;20441;-41
2022/02/25 07:06:55;;;;;;;34.60;32.90;;;19.40;76.30;;;;;;5051897;28;20440;-40
2022/02/25 07:09:22;;;;;;;32.07;30.37;;;19.40;75.30;;;;;;5051364;28;20460;-38
2022/02/25 07:11:49;;;;;;;35.83;33.97;;;19.40;74.80;;;;;;5051772;28;20967;-40
2022/02/25 07:14:18;;;;;;;31.20;29.60;;;19.40;73.60;;;;;;5051656;28;20537;-40
2022/02/25 07:16:45;;;;;;;27.30;26.10;;;19.30;73.50;;;;;;5051648;28;20444;-40
2022/02/25 07:19:11;;;;;;;27.03;25.87;;;19.40;73.30;;;;;;5051562;28;20460;-42
2022/02/25 07:21:38;;;;;;;30.03;28.50;;;19.30;71.60;;;;;;5051572;28;20448;-40
2022/02/25 07:24:06;;;;;;;33.10;31.67;;;19.30;71.40;;;;;;5051492;28;20440;-40
2022/02/25 07:26:33;;;;;;;29.00;27.70;;;19.30;70.00;;;;;;5051593;28;20813;-40
2022/02/25 07:29:00;;;;;;;27.97;26.57;;;19.30;70.30;;;;;;5051211;28;20471;-40
2022/02/25 07:31:28;;;;;;;31.40;29.90;;;19.30;69.60;;;;;;5051372;28;20456;-40
2022/02/25 07:33:55;;;;;;;27.10;25.97;;;19.30;67.80;;;;;;5051455;28;20513;-42
2022/02/25 07:36:21;;;;;;;31.50;29.87;;;19.30;67.40;;;;;;5051406;28;20929;-40
2022/02/25 07:38:48;;;;;;;30.20;28.70;;;19.30;67.90;;;;;;5051055;28;21015;-40
2022/02/25 07:41:15;;;;;;;30.70;29.40;;;19.30;66.30;;;;;;5051378;28;20444;-40
2022/02/25 07:43:42;;;;;;;31.40;29.90;;;19.20;66.10;;;;;;5051328;28;20459;-40
2022/02/25 07:46:08;;;;;;;28.00;26.70;;;19.20;65.90;;;;;;5051245;28;20930;-42
2022/02/25 07:48:37;;;;;;;30.77;29.23;;;19.20;65.00;;;;;;5051109;28;20472;-40
2022/02/25 07:51:03;;;;;;;26.83;25.37;;;19.20;64.30;;;;;;5051339;28;20455;-40
2022/02/25 07:53:33;;;;;;;32.20;30.80;;;19.10;63.40;;;;;;5051207;28;20481;-40
2022/02/25 07:55:59;;;;;;;32.20;30.50;;;19.00;63.40;;;;;;5051270;28;20457;-44
2022/02/25 07:58:26;;;;;;;29.27;27.97;;;19.10;62.70;;;;;;5050969;28;20448;-40
2022/02/25 08:00:53;;;;;;;30.80;29.43;;;19.00;62.80;;;;;;5051182;28;20519;-43
2022/02/25 08:03:20;;;;;;;31.73;30.43;;;18.90;62.70;;;;;;5051188;28;20441;-44
2022/02/25 08:05:48;;;;;;;31.17;29.73;;;18.90;61.70;;;;;;5051037;28;20457;-42
2022/02/25 08:08:15;;;;;;;29.03;27.73;;;18.70;61.30;;;;;;5050959;28;20448;-41
2022/02/25 08:10:41;;;;;;;30.03;28.73;;;18.50;62.20;;;;;;5051067;28;20456;-41
2022/02/25 08:13:09;;;;;;;33.23;31.73;;;18.50;62.50;;;;;;5051084;28;20481;-43
2022/02/25 08:15:36;;;;;;;28.83;27.53;;;18.50;63.70;;;;;;5051102;28;20863;-42
2022/02/25 08:18:04;;;;;;;27.30;26.20;;;18.40;63.70;;;;;;5054187;28;20448;-40
2022/02/25 08:20:31;;;;;;;32.53;30.97;;;18.30;63.70;;;;;;5054650;28;20460;-40
2022/02/25 08:23:01;;;;;;;30.53;29.23;;;18.20;63.30;;;;;;5054829;28;20459;-43
2022/02/25 08:25:29;;;;;;;32.73;31.43;;;18.20;64.10;;;;;;5054960;28;20806;-40
2022/02/25 08:27:56;;;;;;;28.60;27.33;;;18.20;63.50;;;;;;5054483;28;20455;-40
2022/02/25 08:30:23;;;;;;;27.93;26.67;;;18.20;63.70;;;;;;5054398;28;20463;-43
2022/02/25 08:32:51;;;;;;;31.50;30.00;;;18.30;63.30;;;;;;5054490;28;20444;-40
2022/02/25 08:35:19;;;;;;;30.00;28.70;;;18.40;62.40;;;;;;5054539;28;20453;-42
2022/02/25 08:37:47;;;;;;;30.73;29.33;;;18.50;62.00;;;;;;5054344;28;20448;-39
2022/02/25 08:40:16;;;;;;;31.17;29.80;;;18.60;61.50;;;;;;5054394;28;20463;-42
2022/02/25 08:42:43;;;;;;;29.60;28.30;;;18.70;60.50;;;;;;5054320;28;20444;-40
2022/02/25 08:45:12;;;;;;;33.13;31.63;;;18.80;60.00;;;;;;5054245;28;20826;-43
2022/02/25 08:47:40;;;;;;;34.60;33.10;;;18.90;59.70;;;;;;5054249;28;20448;-40
2022/02/25 08:50:08;;;;;;;35.10;33.60;;;18.90;59.10;;;;;;5054082;28;20465;-40
2022/02/25 08:52:35;;;;;;;34.13;32.80;;;18.90;58.60;;;;;;5054265;28;20449;-40
2022/02/25 08:55:02;;;;;;;33.97;32.57;;;18.90;58.50;;;;;;5054017;28;20487;-41
2022/02/25 08:57:30;;;;;;;36.23;34.73;;;19.00;58.50;;;;;;5054201;28;20455;-43
2022/02/25 08:59:57;;;;;;;34.23;32.73;;;19.00;58.10;;;;;;5053537;28;20814;-40
2022/02/25 09:02:24;;;;;;;31.03;29.70;;;18.90;58.00;;;;;;5054031;28;20448;-42
2022/02/25 09:04:50;;;;;;;31.60;30.30;;;18.90;57.90;;;;;;5053840;28;20444;-42
2022/02/25 09:07:17;;;;;;;30.30;29.00;;;19.00;57.60;;;;;;5054004;28;20449;-42
2022/02/25 09:09:44;;;;;;;32.40;31.00;;;18.90;57.60;;;;;;5053672;28;20460;-40
2022/02/25 09:12:11;;;;;;;26.03;24.83;;;19.00;57.60;;;;;;5053906;28;20449;-40
2022/02/25 09:14:39;;;;;;;30.00;28.80;;;19.00;57.20;;;;;;5053679;28;20484;-40
2022/02/25 09:17:07;;;;;;;32.50;31.00;;;19.00;56.90;;;;;;5053764;28;20448;-40
2022/02/25 09:19:34;;;;;;;28.80;27.70;;;19.00;56.40;;;;;;5053648;28;20883;-40
2022/02/25 09:22:01;;;;;;;32.43;31.07;;;19.00;56.50;;;;;;5053722;28;20449;-40
2022/02/25 09:24:28;;;;;;;28.80;27.50;;;19.00;56.70;;;;;;5053580;28;20451;-40
2022/02/25 09:26:54;;;;;;;33.23;31.73;;;19.10;56.30;;;;;;5053664;28;20459;-40
2022/02/25 09:29:21;;;;;;;34.43;32.83;;;19.10;55.80;;;;;;5051939;28;20483;-38
2022/02/25 09:31:49;;;;;;;30.60;29.20;;;19.00;55.70;;;;;;5053535;28;20440;-40
2022/02/25 09:34:16;;;;;;;31.00;29.80;;;19.10;55.70;;;;;;5053390;28;20480;-40
2022/02/25 09:36:43;;;;;;;31.90;30.60;;;19.10;55.60;;;;;;5053483;28;20451;-42
2022/02/25 09:39:11;;;;;;;29.93;28.53;;;19.10;55.20;;;;;;5053138;28;20468;-40
2022/02/25 09:41:38;;;;;;;33.10;31.60;;;19.20;55.20;;;;;;5053152;28;20452;-38
2022/02/25 09:44:05;;;;;;;33.03;31.73;;;19.10;55.00;;;;;;5053076;28;20933;-40
2022/02/25 09:46:31;;;;;;;30.20;29.00;;;19.10;54.80;;;;;;5053222;28;20809;-40
2022/02/25 09:49:00;;;;;;;31.70;30.50;;;19.00;54.60;;;;;;5052788;28;20987;-40
2022/02/25 09:51:28;;;;;;;35.93;34.53;;;19.00;54.70;;;;;;5053125;28;20506;-42
2022/02/25 09:53:55;;;;;;;36.07;34.67;;;19.00;54.60;;;;;;5052926;28;20484;-42
2022/02/25 09:56:24;;;;;;;30.60;29.40;;;19.00;54.60;;;;;;5053002;28;20475;-39
2022/02/25 09:58:51;;;;;;;28.13;26.93;;;18.80;54.50;;;;;;5052570;28;20479;-44
2022/02/25 10:01:18;;;;;;;31.63;30.23;;;18.60;54.50;;;;;;5052915;28;20445;-38
2022/02/25 10:03:51;;;;;;;31.87;30.57;;;18.60;55.10;;;;;;5052942;28;20523;-42
2022/02/25 10:06:19;;;;;;;26.37;25.20;;;18.70;55.30;;;;;;5052789;28;20673;-40
2022/02/25 10:08:46;;;;;;;25.27;24.23;;;18.80;55.10;;;;;;5052426;28;20469;-40
2022/02/25 10:11:13;;;;;;;28.10;26.87;;;19.00;55.00;;;;;;5052679;28;20452;-40
2022/02/25 10:13:40;;;;;;;28.30;27.00;;;19.10;54.40;;;;;;5052649;28;20559;-40
2022/02/25 10:16:11;;;;;;;28.23;27.03;;;19.20;54.10;;;;;;5052602;28;20452;-39
2022/02/25 10:18:38;;;;;;;27.90;26.70;;;19.20;53.80;;;;;;5052373;28;20467;-40
2022/02/25 10:21:08;;;;;;;27.87;26.67;;;19.30;53.60;;;;;;5052478;28;20445;-41
2022/02/25 10:23:38;;;;;;;28.37;27.07;;;19.40;53.50;;;;;;5052498;28;20444;-40
2022/02/25 10:26:12;;;;;;;29.20;28.00;;;19.50;53.10;;;;;;5052461;28;20472;-39
2022/02/25 10:28:41;;;;;;;29.10;27.80;;;19.40;52.80;;;;;;5052139;28;20467;-40
2022/02/25 10:31:15;;;;;;;30.47;29.17;;;19.50;52.80;;;;;;5052280;28;20479;-42
2022/02/25 10:33:42;;;;;;;28.13;26.93;;;19.40;52.70;;;;;;5052234;28;20484;-40
2022/02/25 10:36:09;;;;;;;30.70;29.30;;;19.40;52.50;;;;;;5052244;28;20562;-41
2022/02/25 10:38:39;;;;;;;26.90;25.60;;;19.50;52.30;;;;;;5051883;28;20822;-42
2022/02/25 10:41:06;;;;;;;26.70;25.50;;;19.60;51.90;;;;;;5051977;28;20447;-40
2022/02/25 10:43:33;;;;;;;27.27;26.00;;;19.60;51.70;;;;;;5052129;28;20451;-42
2022/02/25 10:46:10;;;;;;;28.40;27.10;;;19.60;51.70;;;;;;5052098;28;20444;-40
2022/02/25 10:48:37;;;;;;;28.27;26.97;;;19.60;51.50;;;;;;5051991;28;20464;-40
2022/02/25 10:51:05;;;;;;;26.90;25.90;;;19.60;51.30;;;;;;5051965;28;20449;-40
2022/02/25 10:53:34;;;;;;;28.10;26.90;;;19.70;51.40;;;;;;5051955;28;20448;-41
2022/02/25 10:56:07;;;;;;;27.37;26.17;;;19.70;51.10;;;;;;5051903;28;20448;-40
2022/02/25 10:58:41;;;;;;;27.90;26.50;;;19.70;50.90;;;;;;5051603;28;20452;-42
2022/02/25 11:01:08;;;;;;;26.70;25.60;;;19.90;50.90;;;;;;5051896;28;20445;-41
2022/02/25 11:03:35;;;;;;;27.90;26.70;;;20.00;50.50;;;;;;5051903;28;20776;-42
2022/02/25 11:06:01;;;;;;;30.93;29.63;;;20.00;50.10;;;;;;5051835;28;20906;-40
2022/02/25 11:08:28;;;;;;;26.87;25.57;;;19.90;50.00;;;;;;5051505;28;20527;-42
2022/02/25 11:10:56;;;;;;;25.83;24.73;;;19.80;50.10;;;;;;5051653;28;20440;-40
2022/02/25 11:13:25;;;;;;;25.50;24.17;;;19.80;50.20;;;;;;5051703;28;20895;-40
2022/02/25 11:15:54;;;;;;;25.80;24.57;;;19.80;50.20;;;;;;5051458;28;20480;-42
2022/02/25 11:18:22;;;;;;;26.57;25.30;;;19.70;50.30;;;;;;5051394;28;20444;-40
2022/02/25 11:20:50;;;;;;;27.60;26.40;;;19.60;50.30;;;;;;5051432;28;20447;-40
2022/02/25 11:23:18;;;;;;;30.33;29.13;;;19.60;50.30;;;;;;5051606;28;20453;-40
2022/02/25 11:25:46;;;;;;;27.47;26.37;;;19.70;50.30;;;;;;5051571;28;20822;-45
2022/02/25 11:28:14;;;;;;;28.93;27.73;;;19.70;50.20;;;;;;5051331;28;20861;-40
2022/02/25 11:30:48;;;;;;;29.80;28.53;;;19.80;50.10;;;;;;5051501;28;20451;-40
2022/02/25 11:33:17;;;;;;;28.90;27.50;;;19.80;50.00;;;;;;5051511;28;20455;-43
2022/02/25 11:35:52;;;;;;;28.30;27.10;;;19.90;49.70;;;;;;5051418;28;20487;-43
2022/02/25 11:38:28;;;;;;;29.33;28.00;;;20.10;49.70;;;;;;5051344;28;20440;-40
2022/02/25 11:40:58;;;;;;;29.03;27.83;;;20.30;49.30;;;;;;5051333;28;20455;-38
2022/02/25 11:43:40;;;;;;;27.80;26.60;;;20.70;48.80;;;;;;5051418;28;20463;-40
2022/02/25 11:46:10;;;;;;;28.90;27.50;;;21.00;48.00;;;;;;5051338;28;20475;-39
2022/02/25 11:48:46;;;;;;;27.77;26.57;;;21.10;47.40;;;;;;5051301;28;20468;-39
2022/02/25 11:51:33;;;;;;;28.37;27.07;;;21.30;46.80;;;;;;5051733;28;20444;-38
2022/02/25 11:54:27;;;;;;;26.10;25.00;;;21.90;46.60;;;;;;5055344;28;20930;-43
2022/02/25 11:57:24;;;;;;;29.23;28.03;;;22.20;45.10;;;;;;5055377;28;20448;-40
2022/02/25 12:00:15;;;;;;;27.23;25.90;;;22.60;44.90;;;;;;5054892;28;20483;-42
2022/02/25 12:03:15;;;;;;;28.43;26.93;;;23.20;43.80;;;;;;5055050;28;20487;-42
2022/02/25 12:05:44;;;;;;;27.73;26.53;;;23.90;42.80;;;;;;5055112;28;20444;-40
2022/02/25 12:08:29;;;;;;;30.93;29.57;;;23.90;41.80;;;;;;5054908;28;20456;-40
2022/02/25 12:11:00;;;;;;;29.63;28.43;;;24.30;41.20;;;;;;5054901;28;20447;-41
2022/02/25 12:13:28;;;;;;;28.20;26.90;;;24.10;40.70;;;;;;5055094;28;20444;-40
2022/02/25 12:15:56;;;;;;;26.10;25.00;;;23.80;40.90;;;;;;5054778;28;20559;-42
2022/02/25 12:18:40;;;;;;;30.33;29.03;;;23.30;41.00;;;;;;5054641;28;20455;-40
2022/02/25 12:21:10;;;;;;;30.43;29.00;;;22.60;41.60;;;;;;5054752;28;20436;-40
2022/02/25 12:23:46;;;;;;;30.73;29.30;;;22.00;42.30;;;;;;5054930;28;20432;-42
2022/02/25 12:26:14;;;;;;;31.97;30.57;;;21.60;43.10;;;;;;5054659;28;20480;-40
2022/02/25 12:28:45;;;;;;;31.40;30.10;;;21.30;43.90;;;;;;5054389;28;20463;-40
2022/02/25 12:31:13;;;;;;;29.73;28.40;;;21.00;44.40;;;;;;5054665;28;20862;-42
2022/02/25 12:33:57;;;;;;;31.47;30.07;;;20.80;44.90;;;;;;5054533;28;20440;-40
2022/02/25 12:36:43;;;;;;;30.73;29.43;;;20.60;45.40;;;;;;5054665;28;20436;-40
2022/02/25 12:39:20;;;;;;;30.90;29.60;;;20.40;45.80;;;;;;5054119;28;20464;-42